createdAt,value
2018-06-24T00:00:50.353Z,10.00
2018-06-24T00:01:50.378Z,9.30
2018-06-24T00:02:50.397Z,9.40
2018-06-24T00:03:50.416Z,9.20
2018-06-24T00:04:50.434Z,9.50
2018-06-24T00:05:50.457Z,9.50
2018-06-24T00:06:50.474Z,9.50
2018-06-24T00:07:50.493Z,10.20
2018-06-24T00:08:50.513Z,9.50
2018-06-24T00:09:50.537Z,10.00
2018-06-24T00:10:50.553Z,9.80
2018-06-24T00:11:50.573Z,9.20
2018-06-24T00:12:50.591Z,9.30
2018-06-24T00:13:50.639Z,9.40
2018-06-24T00:14:50.631Z,9.70
2018-06-24T00:15:50.654Z,9.50
2018-06-24T00:16:50.673Z,10.20
2018-06-24T00:17:50.691Z,9.60
2018-06-24T00:18:50.712Z,9.20
2018-06-24T00:19:50.727Z,9.20
2018-06-24T00:20:50.752Z,9.80
2018-06-24T00:21:50.775Z,9.80
2018-06-24T00:22:50.790Z,9.80
2018-06-24T00:23:50.810Z,9.90
2018-06-24T00:24:50.826Z,9.70
2018-06-24T00:25:50.849Z,9.70
2018-06-24T00:26:50.876Z,9.10
2018-06-24T00:27:50.886Z,9.70
2018-06-24T00:28:50.906Z,9.80
2018-06-24T00:29:50.924Z,10.20
2018-06-24T00:30:50.952Z,9.80
2018-06-24T00:31:50.967Z,10.00
2018-06-24T00:32:51.027Z,9.60
2018-06-24T00:33:51.003Z,9.40
2018-06-24T00:34:51.028Z,10.00
2018-06-24T00:35:51.048Z,10.00
2018-06-24T00:36:51.069Z,10.90
2018-06-24T00:37:51.087Z,10.20
2018-06-24T00:38:51.108Z,10.70
2018-06-24T00:39:51.124Z,10.90
2018-06-24T00:40:51.148Z,11.00
2018-06-24T00:41:51.163Z,10.70
2018-06-24T00:42:51.185Z,11.10
2018-06-24T00:43:51.204Z,11.20
2018-06-24T00:44:51.222Z,11.40
2018-06-24T00:45:51.244Z,11.30
2018-06-24T00:46:51.263Z,11.30
2018-06-24T00:47:51.280Z,12.20
2018-06-24T00:48:51.301Z,11.90
2018-06-24T00:49:51.319Z,12.00
2018-06-24T00:50:51.341Z,12.90
2018-06-24T00:51:51.359Z,12.80
2018-06-24T00:52:51.380Z,12.80
2018-06-24T00:53:51.402Z,12.60
2018-06-24T00:54:51.421Z,12.40
2018-06-24T00:55:51.439Z,12.00
2018-06-24T00:56:51.459Z,12.70
2018-06-24T00:57:51.479Z,13.70
2018-06-24T00:58:51.497Z,12.80
2018-06-24T00:59:51.519Z,13.10
2018-06-24T01:00:51.541Z,12.60
2018-06-24T01:01:51.556Z,13.40
2018-06-24T01:02:51.578Z,14.10
2018-06-24T01:03:51.597Z,13.50
2018-06-24T01:04:51.613Z,13.90
2018-06-24T01:05:51.634Z,13.60
2018-06-24T01:06:51.657Z,13.70
2018-06-24T01:07:51.672Z,13.70
2018-06-24T01:08:51.695Z,14.20
2018-06-24T01:09:51.717Z,13.60
2018-06-24T01:10:51.735Z,13.00
2018-06-24T01:11:51.753Z,14.00
2018-06-24T01:12:51.772Z,13.80
2018-06-24T01:13:51.789Z,12.80
2018-06-24T01:14:51.811Z,11.70
2018-06-24T01:15:51.834Z,11.90
2018-06-24T01:16:51.849Z,12.80
2018-06-24T01:17:51.870Z,13.50
2018-06-24T01:18:51.887Z,13.20
2018-06-24T01:19:51.907Z,13.50
2018-06-24T01:20:51.929Z,12.80
2018-06-24T01:21:51.950Z,13.30
2018-06-24T01:22:51.967Z,13.10
2018-06-24T01:23:51.989Z,12.60
2018-06-24T01:24:52.007Z,12.00
2018-06-24T01:25:52.030Z,12.50
2018-06-24T01:26:52.046Z,12.00
2018-06-24T01:27:52.063Z,13.60
2018-06-24T01:28:52.085Z,14.20
2018-06-24T01:29:52.105Z,13.50
2018-06-24T01:30:52.121Z,13.60
2018-06-24T01:31:52.141Z,13.00
2018-06-24T01:32:52.160Z,13.70
2018-06-24T01:33:52.180Z,12.70
2018-06-24T01:34:52.201Z,13.00
2018-06-24T01:35:52.217Z,13.30
2018-06-24T01:36:52.240Z,13.60
2018-06-24T01:37:52.259Z,14.60
2018-06-24T01:38:52.282Z,13.90
2018-06-24T01:39:52.295Z,14.40
2018-06-24T01:40:52.316Z,13.40
2018-06-24T01:41:52.335Z,14.30
2018-06-24T01:42:52.355Z,14.00
2018-06-24T01:43:52.375Z,14.60
2018-06-24T01:44:52.395Z,14.30
2018-06-24T01:45:52.412Z,14.40
2018-06-24T01:46:52.430Z,14.80
2018-06-24T01:47:52.447Z,14.60
2018-06-24T01:48:52.467Z,15.30
2018-06-24T01:49:52.486Z,14.50
2018-06-24T01:50:52.509Z,15.80
2018-06-24T01:51:52.529Z,15.50
2018-06-24T01:52:52.547Z,15.50
2018-06-24T01:53:52.564Z,16.00
2018-06-24T02:23:12.621Z,12.10
2018-06-24T02:24:12.619Z,15.50
2018-06-24T02:26:05.546Z,18.20
2018-06-24T02:27:05.528Z,18.00
2018-06-24T02:28:58.480Z,17.70
2018-06-24T02:29:58.456Z,18.50
2018-06-24T02:31:51.374Z,17.70
2018-06-24T02:32:51.386Z,17.70
2018-06-24T02:34:44.328Z,17.90
2018-06-24T02:35:44.312Z,16.90
2018-06-24T02:37:37.231Z,16.80
2018-06-24T02:38:37.243Z,17.10
2018-06-24T02:40:30.186Z,16.60
2018-06-24T02:41:30.180Z,16.10
2018-06-24T02:43:23.097Z,15.90
2018-06-24T02:44:23.110Z,16.50
2018-06-24T02:46:16.055Z,16.40
2018-06-24T02:47:16.048Z,16.20
2018-06-24T02:49:08.966Z,15.70
2018-06-24T02:50:08.979Z,16.20
2018-06-24T02:52:01.934Z,15.80
2018-06-24T02:53:01.912Z,15.50
2018-06-24T02:54:54.858Z,15.90
2018-06-24T02:55:54.849Z,15.40
2018-06-24T02:57:47.790Z,15.20
2018-06-24T02:58:47.788Z,15.70
2018-06-24T03:00:40.737Z,15.40
2018-06-24T03:01:40.729Z,15.80
2018-06-24T03:03:33.652Z,14.70
2018-06-24T03:04:33.668Z,15.00
2018-06-24T03:06:26.614Z,15.00
2018-06-24T03:07:26.602Z,14.80
2018-06-24T03:09:19.523Z,14.60
2018-06-24T03:10:19.540Z,15.70
2018-06-24T03:12:12.490Z,14.20
2018-06-24T03:13:12.480Z,15.20
2018-06-24T03:15:05.426Z,15.50
2018-06-24T03:16:05.413Z,15.60
2018-06-24T03:17:58.341Z,15.10
2018-06-24T03:18:58.352Z,16.10
2018-06-24T03:20:51.296Z,16.20
2018-06-24T03:21:51.287Z,16.20
2018-06-24T03:22:51.306Z,16.50
2018-06-24T03:23:51.324Z,15.60
2018-06-24T03:24:51.342Z,15.70
2018-06-24T03:25:51.363Z,14.80
2018-06-24T03:26:51.407Z,15.30
2018-06-24T03:27:51.395Z,15.20
2018-06-24T03:28:51.417Z,15.10
2018-06-24T03:29:51.436Z,15.10
2018-06-24T03:30:51.458Z,15.40
2018-06-24T03:31:51.472Z,16.20
2018-06-24T03:32:51.487Z,15.50
2018-06-24T03:33:51.509Z,16.30
2018-06-24T03:34:51.528Z,16.40
2018-06-24T03:35:51.544Z,15.80
2018-06-24T03:36:51.564Z,15.00
2018-06-24T03:37:51.582Z,15.50
2018-06-24T03:38:51.601Z,15.20
2018-06-24T03:39:51.618Z,15.70
2018-06-24T03:40:51.638Z,16.10
2018-06-24T03:41:51.656Z,15.20
2018-06-24T03:42:51.675Z,15.90
2018-06-24T03:43:51.692Z,14.90
2018-06-24T03:44:51.707Z,16.10
2018-06-24T03:45:51.731Z,15.70
2018-06-24T03:46:51.748Z,14.70
2018-06-24T03:47:51.766Z,15.40
2018-06-24T03:48:51.790Z,15.60
2018-06-24T03:49:51.804Z,15.30
2018-06-24T03:50:51.825Z,15.10
2018-06-24T03:51:51.838Z,15.20
2018-06-24T03:52:51.857Z,15.20
2018-06-24T03:53:51.875Z,15.40
2018-06-24T03:54:51.895Z,15.40
2018-06-24T03:55:51.912Z,14.70
2018-06-24T03:56:51.929Z,14.70
2018-06-24T03:57:51.948Z,15.10
2018-06-24T03:58:51.975Z,14.20
2018-06-24T03:59:51.985Z,14.80
2018-06-24T04:00:52.007Z,14.80
2018-06-24T04:01:52.025Z,14.90
2018-06-24T04:02:52.044Z,15.00
2018-06-24T04:03:52.059Z,15.10
2018-06-24T04:04:52.165Z,14.30
2018-06-24T04:05:52.100Z,14.60
2018-06-24T04:06:52.116Z,15.10
2018-06-24T04:07:52.132Z,14.40
2018-06-24T04:08:52.151Z,14.70
2018-06-24T04:09:52.167Z,14.00
2018-06-24T04:10:52.187Z,13.70
2018-06-24T04:11:52.209Z,13.50
2018-06-24T04:12:52.224Z,12.80
2018-06-24T04:13:52.243Z,12.30
2018-06-24T04:14:52.282Z,12.40
2018-06-24T04:15:52.279Z,12.00
2018-06-24T04:16:52.299Z,13.00
2018-06-24T04:17:52.315Z,12.60
2018-06-24T04:18:52.339Z,13.10
2018-06-24T04:19:52.353Z,12.90
2018-06-24T04:20:52.375Z,12.40
2018-06-24T04:21:52.391Z,12.40
2018-06-24T04:22:52.410Z,11.10
2018-06-24T04:23:52.430Z,11.00
2018-06-24T04:24:52.447Z,10.10
2018-06-24T04:25:52.465Z,11.30
2018-06-24T04:26:52.485Z,11.10
2018-06-24T04:27:52.503Z,10.40
2018-06-24T04:28:52.523Z,10.90
2018-06-24T04:29:52.541Z,11.50
2018-06-24T04:30:52.558Z,10.80
2018-06-24T04:31:52.587Z,10.70
2018-06-24T04:32:52.597Z,10.20
2018-06-24T04:33:52.617Z,10.20
2018-06-24T04:34:52.637Z,9.90
2018-06-24T04:35:52.668Z,9.50
2018-06-24T04:36:52.672Z,10.00
2018-06-24T04:37:52.693Z,9.30
2018-06-24T04:38:52.713Z,9.60
2018-06-24T04:39:52.730Z,9.40
2018-06-24T04:40:52.750Z,9.70
2018-06-24T04:41:52.775Z,9.60
2018-06-24T04:42:52.791Z,9.40
2018-06-24T04:43:52.805Z,9.10
2018-06-24T04:44:52.826Z,9.60
2018-06-24T04:45:52.847Z,9.40
2018-06-24T04:46:52.866Z,10.40
2018-06-24T04:47:52.882Z,10.10
2018-06-24T04:48:52.901Z,10.10
2018-06-24T04:49:52.922Z,10.20
2018-06-24T04:50:52.941Z,10.20
2018-06-24T04:51:52.962Z,10.20
2018-06-24T04:52:52.980Z,10.10
2018-06-24T04:53:53.004Z,10.30
2018-06-24T04:54:53.022Z,10.10
2018-06-24T04:55:53.039Z,10.10
2018-06-24T04:56:53.057Z,9.40
2018-06-24T04:57:53.078Z,10.10
2018-06-24T04:58:53.096Z,9.90
2018-06-24T04:59:53.117Z,9.70
2018-06-24T05:00:53.135Z,9.30
2018-06-24T05:01:53.160Z,9.70
2018-06-24T05:02:53.179Z,9.70
2018-06-24T05:03:53.194Z,9.30
2018-06-24T05:04:53.214Z,9.30
2018-06-24T05:05:53.232Z,9.40
2018-06-24T05:06:53.254Z,9.00
2018-06-24T05:07:53.272Z,8.80
2018-06-24T05:08:53.291Z,8.60
2018-06-24T05:09:53.314Z,8.40
2018-06-24T05:10:53.334Z,8.70
2018-06-24T05:11:53.354Z,8.40
2018-06-24T05:12:53.374Z,8.40
2018-06-24T05:13:53.397Z,8.80
2018-06-24T05:14:53.414Z,7.80
2018-06-24T05:15:53.434Z,8.80
2018-06-24T05:16:53.449Z,7.90
2018-06-24T05:17:53.475Z,8.40
2018-06-24T05:18:53.499Z,8.10
2018-06-24T05:19:53.527Z,8.10
2018-06-24T05:20:53.558Z,8.00
2018-06-24T05:21:53.560Z,8.00
2018-06-24T05:22:53.570Z,7.70
2018-06-24T05:23:53.592Z,7.80
2018-06-24T05:24:53.616Z,7.40
2018-06-24T05:25:53.637Z,7.10
2018-06-24T05:26:53.660Z,7.50
2018-06-24T05:27:53.672Z,6.90
2018-06-24T05:28:53.705Z,7.10
2018-06-24T05:29:53.719Z,7.10
2018-06-24T05:30:53.736Z,7.20
2018-06-24T05:31:53.753Z,7.30
2018-06-24T05:32:53.776Z,6.20
2018-06-24T05:33:53.799Z,6.90
2018-06-24T05:34:53.819Z,6.40
2018-06-24T05:35:53.839Z,6.20
2018-06-24T05:36:53.859Z,6.20
2018-06-24T05:37:53.896Z,5.90
2018-06-24T05:38:53.902Z,5.60
2018-06-24T05:39:53.926Z,5.30
2018-06-24T05:40:53.948Z,5.20
2018-06-24T05:41:53.968Z,5.40
2018-06-24T05:42:53.993Z,5.30
2018-06-24T05:43:54.012Z,5.60
2018-06-24T05:44:54.036Z,5.30
2018-06-24T05:45:54.060Z,4.70
2018-06-24T05:46:54.082Z,5.30
2018-06-24T05:47:54.108Z,5.10
2018-06-24T05:48:54.208Z,5.10
2018-06-24T05:49:54.153Z,5.20
2018-06-24T05:50:54.177Z,4.80
2018-06-24T05:51:54.197Z,5.30
2018-06-24T05:52:54.222Z,5.50
2018-06-24T05:53:54.241Z,5.30
2018-06-24T05:54:54.267Z,5.10
2018-06-24T05:55:54.290Z,5.20
2018-06-24T05:56:54.315Z,5.30
2018-06-24T05:57:54.334Z,5.10
2018-06-24T05:58:54.361Z,5.40
2018-06-24T05:59:54.386Z,5.00
2018-06-24T06:00:54.406Z,5.30
2018-06-24T06:01:54.426Z,5.50
2018-06-24T06:02:54.518Z,5.40
2018-06-24T06:03:54.470Z,5.10
2018-06-24T06:04:54.498Z,5.30
2018-06-24T06:05:54.520Z,5.20
2018-06-24T06:06:54.544Z,5.40
2018-06-24T06:07:54.562Z,5.20
2018-06-24T06:08:54.584Z,5.20
2018-06-24T06:09:54.605Z,4.80
2018-06-24T06:10:54.630Z,5.10
2018-06-24T06:11:54.680Z,4.80
2018-06-24T06:12:54.678Z,4.90
2018-06-24T06:13:54.703Z,5.00
2018-06-24T06:14:54.725Z,4.80
2018-06-24T06:15:54.748Z,4.80
2018-06-24T06:16:54.768Z,4.70
2018-06-24T06:17:54.794Z,4.80
2018-06-24T06:18:54.821Z,4.80
2018-06-24T06:19:54.839Z,5.00
2018-06-24T06:20:54.865Z,5.10
2018-06-24T06:21:54.889Z,4.40
2018-06-24T06:22:54.909Z,4.80
2018-06-24T06:23:54.939Z,5.30
2018-06-24T06:24:54.958Z,4.90
2018-06-24T06:25:54.983Z,5.20
2018-06-24T06:26:55.009Z,5.00
2018-06-24T06:27:55.033Z,5.00
2018-06-24T06:28:55.053Z,4.20
2018-06-24T06:29:55.081Z,4.60
2018-06-24T06:30:55.104Z,4.80
2018-06-24T06:31:55.127Z,4.50
2018-06-24T06:32:55.150Z,4.90
2018-06-24T06:33:55.173Z,4.60
2018-06-24T06:34:55.202Z,4.60
2018-06-24T06:35:55.220Z,4.50
2018-06-24T06:36:55.280Z,4.90
2018-06-24T06:37:55.269Z,4.80
2018-06-24T06:38:55.293Z,5.30
2018-06-24T06:39:55.312Z,4.80
2018-06-24T06:40:55.337Z,4.60
2018-06-24T06:41:55.362Z,4.70
2018-06-24T06:42:55.384Z,5.00
2018-06-24T06:43:55.404Z,5.00
2018-06-24T06:44:55.513Z,4.60
2018-06-24T06:45:55.455Z,4.50
2018-06-24T06:46:55.478Z,4.60
2018-06-24T06:47:55.502Z,4.60
2018-06-24T06:48:55.524Z,5.20
2018-06-24T06:49:55.545Z,4.80
2018-06-24T06:50:55.577Z,4.40
2018-06-24T06:51:55.606Z,4.70
2018-06-24T06:52:55.616Z,5.00
2018-06-24T06:53:55.636Z,4.90
2018-06-24T06:54:55.662Z,4.60
2018-06-24T06:55:55.682Z,4.70
2018-06-24T06:56:55.704Z,5.00
2018-06-24T06:57:55.795Z,5.10
2018-06-24T06:58:55.750Z,4.80
2018-06-24T06:59:55.772Z,5.00
2018-06-24T07:00:55.797Z,5.30
2018-06-24T07:01:55.819Z,5.00
2018-06-24T07:02:55.842Z,5.10
2018-06-24T07:03:55.862Z,5.40
2018-06-24T07:04:55.886Z,5.20
2018-06-24T07:05:55.908Z,5.10
2018-06-24T07:06:55.931Z,5.20
2018-06-24T07:07:55.955Z,5.10
2018-06-24T07:08:55.972Z,5.30
2018-06-24T07:09:55.996Z,5.10
2018-06-24T07:10:56.021Z,4.90
2018-06-24T07:11:56.038Z,5.00
2018-06-24T07:12:56.066Z,4.90
2018-06-24T07:13:56.084Z,4.70
2018-06-24T07:14:56.108Z,5.40
2018-06-24T07:15:56.139Z,4.80
2018-06-24T07:16:56.155Z,5.20
2018-06-24T07:17:56.174Z,5.10
2018-06-24T07:18:56.199Z,5.00
2018-06-24T07:19:56.220Z,5.30
2018-06-24T07:20:56.241Z,5.70
2018-06-24T07:21:56.265Z,5.40
2018-06-24T07:22:56.287Z,5.10
2018-06-24T07:23:56.308Z,5.30
2018-06-24T07:24:56.330Z,5.40
2018-06-24T07:25:56.353Z,5.70
2018-06-24T07:26:56.376Z,5.30
2018-06-24T07:27:56.397Z,4.90
2018-06-24T07:28:56.420Z,5.50
2018-06-24T07:29:56.441Z,5.00
2018-06-24T07:30:56.467Z,5.50
2018-06-24T07:31:56.486Z,4.90
2018-06-24T07:32:56.514Z,4.80
2018-06-24T07:33:56.531Z,5.40
2018-06-24T07:34:56.555Z,6.30
2018-06-24T07:35:56.576Z,5.20
2018-06-24T07:36:56.604Z,5.60
2018-06-24T07:37:56.622Z,5.60
2018-06-24T07:38:56.646Z,5.10
2018-06-24T07:39:56.669Z,5.60
2018-06-24T07:40:56.691Z,5.20
2018-06-24T07:41:56.715Z,5.70
2018-06-24T07:42:56.737Z,5.80
2018-06-24T07:43:56.755Z,6.00
2018-06-24T07:44:56.782Z,6.30
2018-06-24T07:45:56.803Z,5.70
2018-06-24T07:46:56.825Z,6.00
2018-06-24T07:47:56.855Z,6.10
2018-06-24T07:48:56.870Z,6.30
2018-06-24T07:49:56.893Z,6.40
2018-06-24T07:50:56.917Z,6.50
2018-06-24T07:51:56.938Z,6.20
2018-06-24T07:52:56.963Z,6.90
2018-06-24T07:53:56.983Z,6.90
2018-06-24T07:54:57.009Z,6.60
2018-06-24T07:55:57.031Z,7.00
2018-06-24T07:56:57.056Z,6.50
2018-06-24T07:57:57.079Z,6.90
2018-06-24T07:58:57.102Z,7.00
2018-06-24T07:59:57.122Z,6.50
2018-06-24T08:00:57.144Z,7.50
2018-06-24T08:01:57.167Z,6.40
2018-06-24T08:02:57.192Z,6.60
2018-06-24T08:03:57.215Z,6.30
2018-06-24T08:04:57.240Z,7.60
2018-06-24T08:05:57.261Z,7.10
2018-06-24T08:06:57.286Z,6.80
2018-06-24T08:07:57.308Z,6.20
2018-06-24T08:08:57.329Z,6.40
2018-06-24T08:09:57.354Z,6.70
2018-06-24T08:10:57.375Z,6.10
2018-06-24T08:11:57.847Z,6.40
2018-06-24T08:12:57.424Z,5.80
2018-06-24T08:13:57.452Z,6.40
2018-06-24T08:14:57.467Z,6.30
2018-06-24T08:15:57.490Z,5.70
2018-06-24T08:16:57.516Z,6.10
2018-06-24T08:17:57.539Z,5.40
2018-06-24T08:18:57.560Z,5.40
2018-06-24T08:19:57.585Z,5.50
2018-06-24T08:20:57.603Z,6.40
2018-06-24T08:21:57.630Z,6.20
2018-06-24T08:22:57.651Z,6.50
2018-06-24T08:23:57.675Z,7.70
2018-06-24T08:24:57.698Z,6.10
2018-06-24T08:25:57.721Z,5.90
2018-06-24T08:26:57.749Z,5.70
2018-06-24T08:27:57.769Z,5.30
2018-06-24T08:28:57.790Z,5.50
2018-06-24T08:29:57.811Z,5.50
2018-06-24T08:30:57.838Z,5.60
2018-06-24T08:31:57.865Z,5.30
2018-06-24T08:32:57.882Z,5.30
2018-06-24T08:33:57.905Z,5.60
2018-06-24T08:34:57.929Z,5.50
2018-06-24T08:35:57.950Z,4.90
2018-06-24T08:36:57.982Z,5.70
2018-06-24T08:37:57.996Z,4.90
2018-06-24T08:38:58.054Z,5.50
2018-06-24T08:39:58.043Z,4.70
2018-06-24T08:40:58.066Z,4.70
2018-06-24T08:41:58.091Z,4.90
2018-06-24T08:42:58.113Z,4.60
2018-06-24T08:43:58.137Z,4.90
2018-06-24T08:44:58.163Z,4.70
2018-06-24T08:45:58.183Z,5.00
2018-06-24T08:46:58.207Z,4.60
2018-06-24T08:47:58.230Z,4.60
2018-06-24T08:48:58.252Z,4.70
2018-06-24T08:49:58.279Z,5.50
2018-06-24T08:50:58.301Z,5.20
2018-06-24T08:51:58.327Z,5.00
2018-06-24T08:52:58.346Z,4.80
2018-06-24T08:53:58.369Z,4.50
2018-06-24T08:54:58.393Z,4.90
2018-06-24T08:55:58.414Z,4.40
2018-06-24T08:56:58.441Z,4.50
2018-06-24T08:57:58.464Z,4.60
2018-06-24T08:58:58.488Z,4.60
2018-06-24T08:59:58.509Z,4.90
2018-06-24T09:00:58.534Z,4.60
2018-06-24T09:01:58.558Z,4.50
2018-06-24T09:02:58.582Z,4.20
2018-06-24T09:03:58.601Z,4.50
2018-06-24T09:04:58.629Z,4.60
2018-06-24T09:05:58.651Z,4.80
2018-06-24T09:06:58.672Z,4.50
2018-06-24T09:07:58.711Z,4.20
2018-06-24T09:08:58.719Z,4.70
2018-06-24T09:09:58.750Z,4.50
2018-06-24T09:10:58.770Z,4.00
2018-06-24T09:11:58.792Z,4.50
2018-06-24T09:12:58.815Z,4.20
2018-06-24T09:13:58.891Z,4.30
2018-06-24T09:14:58.865Z,4.00
2018-06-24T09:15:59.036Z,4.40
2018-06-24T09:16:58.913Z,4.50
2018-06-24T09:17:58.931Z,4.10
2018-06-24T09:18:58.959Z,4.80
2018-06-24T09:19:58.982Z,4.00
2018-06-24T09:20:59.005Z,4.40
2018-06-24T09:21:59.036Z,4.50
2018-06-24T09:22:59.051Z,4.40
2018-06-24T09:23:59.077Z,4.20
2018-06-24T09:24:59.097Z,3.70
2018-06-24T09:25:59.125Z,4.00
2018-06-24T09:26:59.155Z,4.00
2018-06-24T09:27:59.169Z,4.10
2018-06-24T09:28:59.192Z,3.70
2018-06-24T09:29:59.216Z,3.50
2018-06-24T09:30:59.243Z,3.10
2018-06-24T09:31:59.264Z,3.60
2018-06-24T09:32:59.285Z,3.30
2018-06-24T09:33:59.314Z,4.00
2018-06-24T09:34:59.336Z,3.80
2018-06-24T09:35:59.359Z,3.10
2018-06-24T09:36:59.384Z,3.30
2018-06-24T09:37:59.402Z,3.30
2018-06-24T09:38:59.431Z,3.00
2018-06-24T09:39:59.450Z,2.80
2018-06-24T09:40:59.521Z,3.30
2018-06-24T09:41:59.500Z,3.00
2018-06-24T09:42:59.526Z,2.90
2018-06-24T09:43:59.545Z,3.40
2018-06-24T09:44:59.573Z,2.50
2018-06-24T09:45:59.596Z,2.40
2018-06-24T09:46:59.618Z,2.90
2018-06-24T09:47:59.641Z,2.60
2018-06-24T09:48:59.666Z,2.50
2018-06-24T09:49:59.693Z,2.30
2018-06-24T09:50:59.712Z,2.80
2018-06-24T09:51:59.737Z,2.60
2018-06-24T09:52:59.761Z,2.70
2018-06-24T09:53:59.786Z,2.50
2018-06-24T09:54:59.808Z,2.40
2018-06-24T09:55:59.832Z,2.30
2018-06-24T09:56:59.852Z,2.20
2018-06-24T09:57:59.881Z,2.20
2018-06-24T09:58:59.904Z,2.20
2018-06-24T09:59:59.927Z,2.20
2018-06-24T10:00:59.950Z,2.00
2018-06-24T10:01:59.976Z,1.80
2018-06-24T10:03:00.001Z,2.10
2018-06-24T10:04:00.027Z,2.00
2018-06-24T10:05:00.056Z,2.10
2018-06-24T10:06:00.072Z,1.90
2018-06-24T10:07:00.098Z,2.10
2018-06-24T10:08:00.119Z,2.10
2018-06-24T10:09:00.140Z,2.30
2018-06-24T10:10:00.169Z,2.30
2018-06-24T10:11:00.253Z,2.10
2018-06-24T10:12:00.212Z,1.80
2018-06-24T10:13:00.236Z,2.10
2018-06-24T10:14:00.261Z,1.80
2018-06-24T10:15:00.285Z,1.90
2018-06-24T10:16:00.307Z,2.40
2018-06-24T10:17:00.330Z,2.20
2018-06-24T10:18:00.356Z,2.20
2018-06-24T10:19:00.382Z,2.30
2018-06-24T10:20:00.399Z,2.10
2018-06-24T10:21:00.428Z,2.30
2018-06-24T10:22:00.449Z,1.80
2018-06-24T10:23:00.473Z,2.30
2018-06-24T10:24:00.498Z,2.10
2018-06-24T10:25:00.520Z,2.20
2018-06-24T10:26:00.596Z,2.20
2018-06-24T10:27:00.574Z,2.20
2018-06-24T10:28:00.593Z,2.40
2018-06-24T10:29:00.619Z,2.20
2018-06-24T10:30:00.644Z,2.30
2018-06-24T10:31:00.666Z,2.20
2018-06-24T10:32:00.698Z,2.30
2018-06-24T10:33:00.717Z,2.10
2018-06-24T10:34:00.738Z,2.30
2018-06-24T10:35:00.765Z,2.00
2018-06-24T10:36:00.785Z,2.40
2018-06-24T10:37:00.813Z,2.20
2018-06-24T10:38:00.836Z,2.20
2018-06-24T10:39:00.858Z,2.20
2018-06-24T10:40:00.878Z,2.20
2018-06-24T10:41:00.905Z,2.40
2018-06-24T10:42:00.929Z,2.60
2018-06-24T10:43:00.957Z,2.20
2018-06-24T10:44:00.978Z,2.40
2018-06-24T10:45:01.003Z,2.20
2018-06-24T10:46:01.029Z,2.40
2018-06-24T10:47:01.053Z,2.30
2018-06-24T10:48:01.074Z,2.50
2018-06-24T10:49:01.099Z,2.10
2018-06-24T10:50:01.124Z,2.20
2018-06-24T10:51:01.149Z,2.40
2018-06-24T10:52:01.173Z,2.40
2018-06-24T10:53:01.224Z,2.40
2018-06-24T10:54:01.218Z,2.40
2018-06-24T10:55:01.250Z,2.30
2018-06-24T10:56:01.268Z,2.50
2018-06-24T10:57:01.293Z,2.40
2018-06-24T10:58:01.317Z,2.20
2018-06-24T10:59:01.343Z,2.30
2018-06-24T11:00:01.371Z,2.30
2018-06-24T11:01:01.392Z,2.60
2018-06-24T11:02:01.439Z,2.40
2018-06-24T11:03:01.442Z,2.70
2018-06-24T11:04:01.462Z,2.50
2018-06-24T11:05:01.487Z,2.20
2018-06-24T11:06:01.513Z,2.50
2018-06-24T11:07:01.539Z,2.30
2018-06-24T11:08:01.562Z,2.40
2018-06-24T11:09:01.585Z,2.50
2018-06-24T11:10:01.608Z,2.20
2018-06-24T11:11:01.638Z,2.10
2018-06-24T11:12:01.659Z,2.50
2018-06-24T11:13:01.683Z,2.40
2018-06-24T11:14:01.706Z,2.20
2018-06-24T11:15:01.735Z,2.20
2018-06-24T11:16:01.760Z,2.10
2018-06-24T11:17:01.778Z,2.50
2018-06-24T11:18:01.805Z,2.10
2018-06-24T11:19:01.828Z,2.30
2018-06-24T11:20:01.855Z,2.20
2018-06-24T11:21:01.878Z,2.10
2018-06-24T11:22:01.902Z,2.20
2018-06-24T11:23:01.926Z,2.30
2018-06-24T11:24:01.952Z,2.40
2018-06-24T11:25:01.973Z,2.40
2018-06-24T11:26:02.002Z,2.40
2018-06-24T11:27:02.026Z,2.30
2018-06-24T11:28:02.045Z,2.20
2018-06-24T11:29:02.075Z,2.00
2018-06-24T11:30:02.095Z,2.20
2018-06-24T11:31:02.135Z,2.50
2018-06-24T11:32:02.144Z,2.30
2018-06-24T11:33:02.169Z,2.40
2018-06-24T11:34:02.193Z,2.20
2018-06-24T11:35:02.217Z,2.20
2018-06-24T11:36:02.244Z,2.10
2018-06-24T11:37:02.322Z,2.10
2018-06-24T11:38:02.291Z,2.20
2018-06-24T11:39:02.315Z,2.30
2018-06-24T11:40:02.338Z,2.30
2018-06-24T11:41:02.362Z,2.50
2018-06-24T11:42:02.387Z,2.20
2018-06-24T11:43:02.414Z,1.90
2018-06-24T11:44:02.435Z,2.10
2018-06-24T11:45:02.461Z,2.00
2018-06-24T11:46:02.483Z,2.10
2018-06-24T11:47:02.509Z,2.20
2018-06-24T11:48:02.531Z,2.30
2018-06-24T11:49:02.556Z,2.20
2018-06-24T11:50:02.643Z,2.60
2018-06-24T11:51:02.604Z,2.10
2018-06-24T11:52:02.631Z,2.50
2018-06-24T11:53:02.656Z,2.20
2018-06-24T11:54:02.679Z,2.30
2018-06-24T11:55:02.699Z,2.30
2018-06-24T11:56:02.738Z,2.00
2018-06-24T11:57:02.788Z,2.50
2018-06-24T11:58:02.795Z,2.10
2018-06-24T11:59:02.802Z,2.20
2018-06-24T12:00:02.824Z,2.20
2018-06-24T12:01:02.851Z,1.80
2018-06-24T12:02:02.938Z,2.40
2018-06-24T12:03:02.899Z,2.10
2018-06-24T12:04:02.965Z,2.20
2018-06-24T12:05:02.956Z,2.20
2018-06-24T12:06:02.975Z,2.40
2018-06-24T12:07:02.998Z,2.00
2018-06-24T12:08:03.021Z,2.10
2018-06-24T12:09:03.044Z,2.30
2018-06-24T12:10:03.076Z,2.10
2018-06-24T12:11:03.098Z,2.10
2018-06-24T12:12:03.121Z,2.10
2018-06-24T12:13:03.152Z,3.00
2018-06-24T12:14:03.171Z,2.50
2018-06-24T12:15:03.198Z,2.40
2018-06-24T12:16:03.218Z,2.20
2018-06-24T12:17:03.245Z,1.90
2018-06-24T12:18:03.270Z,1.90
2018-06-24T12:19:03.291Z,2.10
2018-06-24T12:20:03.320Z,2.60
2018-06-24T12:21:03.345Z,2.30
2018-06-24T12:22:03.372Z,2.20
2018-06-24T12:23:03.394Z,2.60
2018-06-24T12:24:03.418Z,2.30
2018-06-24T12:25:03.440Z,2.30
2018-06-24T12:26:03.466Z,2.30
2018-06-24T12:27:03.488Z,2.50
2018-06-24T12:28:03.515Z,2.30
2018-06-24T12:29:03.540Z,2.20
2018-06-24T12:30:03.576Z,2.20
2018-06-24T12:31:03.591Z,2.00
2018-06-24T12:32:03.610Z,1.80
2018-06-24T12:33:03.635Z,2.10
2018-06-24T12:34:03.662Z,2.10
2018-06-24T12:35:03.688Z,2.20
2018-06-24T12:36:03.710Z,2.20
2018-06-24T12:37:03.737Z,2.00
2018-06-24T12:38:03.764Z,2.10
2018-06-24T12:39:03.786Z,2.10
2018-06-24T12:40:03.810Z,2.10
2018-06-24T12:41:03.838Z,2.20
2018-06-24T12:42:03.863Z,2.10
2018-06-24T12:43:03.930Z,2.10
2018-06-24T12:44:03.912Z,2.10
2018-06-24T12:45:03.931Z,2.20
2018-06-24T12:46:03.956Z,1.90
2018-06-24T12:47:03.984Z,2.10
2018-06-24T12:48:04.001Z,2.10
2018-06-24T12:49:04.029Z,1.80
2018-06-24T12:50:04.055Z,2.00
2018-06-24T12:51:04.078Z,2.20
2018-06-24T12:52:04.103Z,2.00
2018-06-24T12:53:04.128Z,2.10
2018-06-24T12:54:04.151Z,2.40
2018-06-24T12:55:04.174Z,2.50
2018-06-24T12:56:04.206Z,2.50
2018-06-24T12:57:04.225Z,2.50
2018-06-24T12:58:04.251Z,2.50
2018-06-24T12:59:04.474Z,2.30
2018-06-24T13:00:04.800Z,2.30
2018-06-24T13:01:04.321Z,3.00
2018-06-24T13:02:04.361Z,2.40
2018-06-24T13:03:04.370Z,2.50
2018-06-24T13:04:04.393Z,2.80
2018-06-24T13:05:04.419Z,2.80
2018-06-24T13:06:04.445Z,2.70
2018-06-24T13:07:04.473Z,2.70
2018-06-24T13:08:04.491Z,2.50
2018-06-24T13:09:04.518Z,2.60
2018-06-24T13:10:04.542Z,2.90
2018-06-24T13:11:04.564Z,2.50
2018-06-24T13:12:04.588Z,2.70
2018-06-24T13:13:04.616Z,2.60
2018-06-24T13:14:04.658Z,2.70
2018-06-24T13:15:04.663Z,2.70
2018-06-24T13:16:04.683Z,2.50
2018-06-24T13:17:04.710Z,2.40
2018-06-24T13:18:04.733Z,2.30
2018-06-24T13:19:04.758Z,2.40
2018-06-24T13:20:04.783Z,2.40
2018-06-24T13:21:04.808Z,2.80
2018-06-24T13:22:04.832Z,2.80
2018-06-24T13:23:04.856Z,2.80
2018-06-24T13:24:04.877Z,2.80
2018-06-24T13:25:04.903Z,2.70
2018-06-24T13:26:04.929Z,2.40
2018-06-24T13:27:04.954Z,2.30
2018-06-24T13:28:04.976Z,2.70
2018-06-24T13:29:05.004Z,2.60
2018-06-24T13:30:05.029Z,2.50
2018-06-24T13:31:05.054Z,2.30
2018-06-24T13:32:05.139Z,2.60
2018-06-24T13:33:05.100Z,2.20
2018-06-24T13:34:05.140Z,2.30
2018-06-24T13:35:05.149Z,2.40
2018-06-24T13:36:05.172Z,2.40
2018-06-24T13:37:05.200Z,2.60
2018-06-24T13:38:05.221Z,2.30
2018-06-24T13:39:05.248Z,2.60
2018-06-24T13:40:05.275Z,2.70
2018-06-24T13:41:05.299Z,3.00
2018-06-24T13:42:05.321Z,2.60
2018-06-24T13:43:05.347Z,2.90
2018-06-24T13:44:05.369Z,2.70
2018-06-24T13:45:05.401Z,2.90
2018-06-24T13:46:05.421Z,3.00
2018-06-24T13:47:05.443Z,2.90
2018-06-24T13:48:05.468Z,2.80
2018-06-24T13:49:05.494Z,2.90
2018-06-24T13:50:05.521Z,3.50
2018-06-24T13:51:05.540Z,2.90
2018-06-24T13:52:05.567Z,2.90
2018-06-24T13:53:05.588Z,2.80
2018-06-24T13:54:05.615Z,3.40
2018-06-24T13:55:05.646Z,3.20
2018-06-24T13:56:05.667Z,3.30
2018-06-24T13:57:05.690Z,2.90
2018-06-24T13:58:05.782Z,3.10